Time,TemperatureF,DewpointF,PressureIn,WindDirection,WindDirectionDegrees,WindSpeedMPH,WindSpeedGustMPH,Humidity,HourlyPrecipIn,Conditions,Clouds,dailyrainin,SolarRadiationWatts/m^2,SoftwareType,DateUTC
2013-06-30 00:00:00,60.0,54.0,30.13,East,90,2.0,-999.0,81,-99.99,,,-99.99,0.140000,,2013-06-30 06:00:00,
2013-06-30 00:53:00,60.0,54.0,30.13,East,90,2.0,-999.0,81,-99.99,,,-99.99,0.140000,,2013-06-30 06:53:00,
2013-06-30 02:00:00,61.0,53.0,30.13,SW,224,2.0,-999.0,73,-99.99,,,-99.99,0.120000,,2013-06-30 08:00:00,
2013-06-30 03:00:00,58.0,53.0,30.14,West,277,3.0,-999.0,84,-99.99,,,-99.99,0.120000,,2013-06-30 09:00:00,
2013-06-30 04:00:00,59.0,53.0,30.14,West,279,1.0,-999.0,80,-99.99,,,-99.99,0.080000,,2013-06-30 10:00:00,
2013-06-30 05:00:00,58.0,53.0,30.14,West,281,2.0,-999.0,84,-99.99,,,-99.99,0.310000,,2013-06-30 11:00:00,
2013-06-30 06:00:00,59.0,54.0,30.14,East,81,1.0,-999.0,83,-99.99,,,-99.99,27.870001,,2013-06-30 12:00:00,
2013-06-30 07:00:00,62.0,55.0,30.14,East,88,2.0,-999.0,78,-99.99,,,-99.99,117.500000,,2013-06-30 13:00:00,
2013-06-30 08:00:00,64.0,56.0,30.15,East,90,5.0,-999.0,75,-99.99,,,-99.99,214.000000,,2013-06-30 14:00:00,
2013-06-30 08:52:00,64.0,56.0,30.15,East,90,5.0,-999.0,75,-99.99,,,-99.99,214.000000,,2013-06-30 14:52:00,
2013-06-30 09:00:00,69.0,57.0,30.14,SE,125,7.0,-999.0,65,-99.99,,,-99.99,307.799988,,2013-06-30 15:00:00,
2013-06-30 09:53:00,69.0,57.0,30.14,SE,125,7.0,-999.0,65,-99.99,,,-99.99,307.799988,,2013-06-30 15:53:00,
2013-06-30 10:00:00,70.0,55.0,30.15,ESE,116,10.0,-999.0,59,-99.99,,,-99.99,358.899994,,2013-06-30 16:00:00,
2013-06-30 11:00:00,73.0,56.0,30.14,ESE,120,10.0,-999.0,56,-99.99,,,-99.99,411.100006,,2013-06-30 17:00:00,
2013-06-30 12:00:00,75.0,55.0,30.14,ESE,119,9.0,-999.0,49,-99.99,,,-99.99,645.599976,,2013-06-30 18:00:00,
2013-06-30 13:00:00,76.0,53.0,30.13,ESE,103,8.0,-999.0,46,-99.99,,,-99.99,713.099976,,2013-06-30 19:00:00,
2013-06-30 14:00:00,78.0,52.0,30.13,East,82,7.0,-999.0,41,-99.99,,,-99.99,726.900024,,2013-06-30 20:00:00,
2013-06-30 15:00:00,78.0,48.0,30.12,East,87,8.0,-999.0,35,-99.99,,,-99.99,617.799988,,2013-06-30 21:00:00,
2013-06-30 15:53:00,78.0,48.0,30.12,East,87,8.0,-999.0,35,-99.99,,,-99.99,617.799988,,2013-06-30 21:53:00,
2013-06-30 16:00:00,80.0,46.0,30.12,East,85,8.0,-999.0,31,-99.99,,,-99.99,643.099976,,2013-06-30 22:00:00,
2013-06-30 16:53:00,80.0,46.0,30.12,East,85,8.0,-999.0,31,-99.99,,,-99.99,643.099976,,2013-06-30 22:53:00,
2013-06-30 17:00:00,78.0,49.0,30.11,ESE,103,9.0,-999.0,36,-99.99,,,-99.99,461.899994,,2013-06-30 23:00:00,
2013-06-30 18:00:00,80.0,48.0,30.10,ESE,106,9.0,-999.0,33,-99.99,,,-99.99,288.399994,,2013-07-01 00:00:00,
2013-06-30 18:52:00,80.0,48.0,30.10,ESE,106,9.0,-999.0,33,-99.99,,,-99.99,288.399994,,2013-07-01 00:52:00,
2013-06-30 19:00:00,77.0,52.0,30.10,ESE,113,9.0,-999.0,41,-99.99,,,-99.99,264.000000,,2013-07-01 01:00:00,
2013-06-30 19:52:00,77.0,52.0,30.10,ESE,113,9.0,-999.0,41,-99.99,,,-99.99,264.000000,,2013-07-01 01:52:00,
2013-06-30 20:00:00,75.0,54.0,30.11,ESE,113,7.0,-999.0,48,-99.99,,,-99.99,141.000000,,2013-07-01 02:00:00,
2013-06-30 20:54:00,75.0,54.0,30.11,ESE,113,7.0,-999.0,48,-99.99,,,-99.99,141.000000,,2013-07-01 02:54:00,
2013-06-30 21:00:00,68.0,56.0,30.11,SE,127,5.0,-999.0,65,-99.99,,,-99.99,28.959999,,2013-07-01 03:00:00,
2013-06-30 22:00:00,66.0,56.0,30.15,SE,130,6.0,-999.0,69,-99.99,,,-99.99,0.560000,,2013-07-01 04:00:00,
2013-06-30 22:53:00,66.0,56.0,30.15,SE,130,6.0,-999.0,69,-99.99,,,-99.99,0.560000,,2013-07-01 04:53:00,
2013-06-30 23:00:00,65.0,57.0,30.16,SE,125,6.0,-999.0,76,-99.99,,,-99.99,0.160000,,2013-07-01 05:00:00,